Holland, Nebraska
Current Conditions -  °F | °C
As of 11:54 AM on Wednesday 28 Jan 2015 (Local Time) from KLNK Reporting Station
Clear Clear  
Wind Chill: 49°   Ceiling: Unl
Heat Index: 49°   Visibility: 10mi
Dew Point: 33°   Wind: 0mph
Humidity: 54%   Direction: NA
Pressure: 29.78"   Gusts: NA
Location:  40.6166°N, 96.617°W
Report Text: KLNK 281754Z 00000KT 10SM CLR 09/01 A2978 RMK AO2 SLP088 T00940006 10100 21006 58016
Loading
Personal Weather Stations






























Interactive Weather Map New forecast layout! Learn more

10-Day Weather Forecast

Advertisements
Track Severe Weather on mobile